createdAt,value
2023-05-09T00:00:07.674Z,17.21
2023-05-09T00:01:14.201Z,17.25
2023-05-09T00:02:17.904Z,17.15
2023-05-09T00:03:21.833Z,17.11
2023-05-09T00:04:26.159Z,17.18
2023-05-09T00:05:30.487Z,17.13
2023-05-09T00:06:34.272Z,17.09
2023-05-09T00:07:37.483Z,17.08
2023-05-09T00:08:41.925Z,16.96
2023-05-09T00:09:45.092Z,17.04
2023-05-09T00:10:48.308Z,16.97
2023-05-09T00:11:51.616Z,17.03
2023-05-09T00:12:54.970Z,16.95
2023-05-09T00:13:59.277Z,16.96
2023-05-09T00:15:02.569Z,16.96
2023-05-09T00:16:06.665Z,16.98
2023-05-09T00:17:10.368Z,17.03
2023-05-09T00:18:15.172Z,17.02
2023-05-09T00:19:18.421Z,17.07
2023-05-09T00:20:22.452Z,16.99
2023-05-09T00:21:26.011Z,16.91
2023-05-09T00:22:29.293Z,16.91
2023-05-09T00:23:32.468Z,16.89
2023-05-09T00:24:35.854Z,16.98
2023-05-09T00:25:39.051Z,16.99
2023-05-09T00:26:42.279Z,16.99
2023-05-09T00:27:45.778Z,16.92
2023-05-09T00:28:49.527Z,16.99
2023-05-09T00:29:52.714Z,16.95
2023-05-09T00:30:56.356Z,16.90
2023-05-09T00:31:59.632Z,17.03
2023-05-09T00:33:02.916Z,16.93
2023-05-09T00:34:06.415Z,16.82
2023-05-09T00:35:10.757Z,16.77
2023-05-09T00:36:13.976Z,16.78
2023-05-09T00:37:19.003Z,16.89
2023-05-09T00:38:23.427Z,16.77
2023-05-09T00:39:26.862Z,16.81
2023-05-09T00:40:30.823Z,16.70
2023-05-09T00:41:34.135Z,16.74
2023-05-09T00:42:37.739Z,16.69
2023-05-09T00:43:41.020Z,16.76
2023-05-09T00:44:44.528Z,16.67
2023-05-09T00:45:47.992Z,16.61
2023-05-09T00:46:51.643Z,16.63
2023-05-09T00:47:55.212Z,16.71
2023-05-09T00:48:58.619Z,16.65
2023-05-09T00:50:03.677Z,16.70
2023-05-09T00:51:06.959Z,16.78
2023-05-09T00:52:10.701Z,16.81
2023-05-09T00:53:14.537Z,16.77
2023-05-09T00:54:17.981Z,16.66
2023-05-09T00:55:21.275Z,16.66
2023-05-09T00:56:24.741Z,16.61
2023-05-09T00:57:28.050Z,16.72
2023-05-09T00:58:31.637Z,16.79
2023-05-09T00:59:34.863Z,16.72
2023-05-09T01:00:38.835Z,16.64
2023-05-09T01:01:42.281Z,16.63
2023-05-09T01:02:54.237Z,16.66
2023-05-09T01:03:57.776Z,16.69
2023-05-09T01:05:01.161Z,16.50
2023-05-09T01:06:47.845Z,16.60
2023-05-09T01:08:16.763Z,16.58
2023-05-09T01:09:33.620Z,16.61
2023-05-09T01:10:46.932Z,16.67
2023-05-09T01:12:14.772Z,16.81
2023-05-09T01:13:29.182Z,16.82
2023-05-09T01:15:02.823Z,16.73
2023-05-09T01:16:17.601Z,16.74
2023-05-09T01:17:42.793Z,16.76
2023-05-09T01:18:46.100Z,16.61
2023-05-09T01:19:59.997Z,16.55
2023-05-09T01:21:09.651Z,16.60
2023-05-09T01:22:17.133Z,16.68
2023-05-09T01:23:44.952Z,16.66
2023-05-09T01:25:08.791Z,16.67
2023-05-09T01:26:24.044Z,16.72
2023-05-09T01:27:50.526Z,16.62
2023-05-09T01:29:25.299Z,16.56
2023-05-09T01:30:31.968Z,16.59
2023-05-09T01:31:41.724Z,16.59
2023-05-09T01:32:50.853Z,16.61
2023-05-09T01:34:00.694Z,16.61
2023-05-09T01:35:07.628Z,16.68
2023-05-09T01:36:18.766Z,16.79
2023-05-09T01:37:31.233Z,16.79
2023-05-09T01:38:38.568Z,16.70
2023-05-09T01:39:46.083Z,16.81
2023-05-09T01:40:55.137Z,16.91
2023-05-09T01:42:04.369Z,16.85
2023-05-09T01:43:11.737Z,16.81
2023-05-09T01:44:17.828Z,16.86
2023-05-09T01:45:22.981Z,16.78
2023-05-09T01:46:28.093Z,16.75
2023-05-09T01:47:31.954Z,16.76
2023-05-09T01:48:38.702Z,16.76
2023-05-09T01:49:43.771Z,16.76
2023-05-09T01:50:49.858Z,16.78
2023-05-09T01:51:57.316Z,16.72
2023-05-09T01:53:02.947Z,16.79
2023-05-09T01:54:07.685Z,16.81
2023-05-09T01:55:13.477Z,16.91
2023-05-09T01:56:19.720Z,16.85
2023-05-09T01:57:25.455Z,16.71
2023-05-09T01:58:29.742Z,16.84
2023-05-09T01:59:35.544Z,16.91
2023-05-09T02:00:39.905Z,16.80
2023-05-09T02:01:45.692Z,16.91
2023-05-09T02:02:51.296Z,16.89
2023-05-09T02:03:55.459Z,16.90
2023-05-09T02:05:00.318Z,16.93
2023-05-09T02:06:05.822Z,16.95
2023-05-09T02:07:09.688Z,16.92
2023-05-09T02:08:16.103Z,16.74
2023-05-09T02:09:22.610Z,16.78
2023-05-09T02:10:28.619Z,16.76
2023-05-09T02:11:31.993Z,16.68
2023-05-09T02:12:35.795Z,16.63
2023-05-09T02:13:39.464Z,16.60
2023-05-09T02:14:42.950Z,16.64
2023-05-09T02:15:46.762Z,16.64
2023-05-09T02:16:50.596Z,16.71
2023-05-09T02:17:53.903Z,16.81
2023-05-09T02:18:57.242Z,16.82
2023-05-09T02:20:00.524Z,16.95
2023-05-09T02:21:04.967Z,17.09
2023-05-09T02:22:08.518Z,17.17
2023-05-09T02:23:12.734Z,17.23
2023-05-09T02:24:16.368Z,17.31
2023-05-09T02:25:19.871Z,17.20
2023-05-09T02:26:23.489Z,17.24
2023-05-09T02:27:28.777Z,17.23
2023-05-09T02:28:32.581Z,17.10
2023-05-09T02:29:42.422Z,17.16
2023-05-09T02:30:48.242Z,17.15
2023-05-09T02:31:53.883Z,16.97
2023-05-09T02:33:07.033Z,16.83
2023-05-09T02:34:14.149Z,16.76
2023-05-09T02:35:19.255Z,16.75
2023-05-09T02:36:24.466Z,16.75
2023-05-09T02:37:28.728Z,16.79
2023-05-09T02:38:32.413Z,16.81
2023-05-09T02:39:37.105Z,16.96
2023-05-09T02:40:43.188Z,17.12
2023-05-09T02:41:50.480Z,17.24
2023-05-09T02:42:54.896Z,17.13
2023-05-09T02:43:58.235Z,17.17
2023-05-09T02:45:01.666Z,17.26
2023-05-09T02:46:05.144Z,17.19
2023-05-09T02:47:09.937Z,17.23
2023-05-09T02:48:13.208Z,17.21
2023-05-09T02:49:30.900Z,17.25
2023-05-09T02:50:36.575Z,17.15
2023-05-09T02:51:39.890Z,17.16
2023-05-09T02:52:43.141Z,17.10
2023-05-09T02:53:46.973Z,17.01
2023-05-09T02:54:50.165Z,16.99
2023-05-09T02:55:54.594Z,16.97
2023-05-09T02:56:57.996Z,17.05
2023-05-09T02:58:12.621Z,16.95
2023-05-09T02:59:19.660Z,16.95
2023-05-09T03:00:24.534Z,16.89
2023-05-09T03:01:27.746Z,16.85
2023-05-09T03:02:31.499Z,16.69
2023-05-09T03:03:35.411Z,16.59
2023-05-09T03:04:40.803Z,16.61
2023-05-09T03:05:44.329Z,16.52
2023-05-09T03:06:47.610Z,16.51
2023-05-09T03:07:52.078Z,16.56
2023-05-09T03:08:55.277Z,16.55
2023-05-09T03:09:59.741Z,16.58
2023-05-09T03:11:03.465Z,16.60
2023-05-09T03:12:07.488Z,16.57
2023-05-09T03:13:12.127Z,16.49
2023-05-09T03:14:16.047Z,16.52
2023-05-09T03:15:19.462Z,16.67
2023-05-09T03:16:24.032Z,16.74
2023-05-09T03:17:28.940Z,16.70
2023-05-09T03:18:32.278Z,16.66
2023-05-09T03:19:36.467Z,16.71
2023-05-09T03:20:39.912Z,16.66
2023-05-09T03:21:43.301Z,16.81
2023-05-09T03:22:46.553Z,16.85
2023-05-09T03:23:49.888Z,16.86
2023-05-09T03:24:53.126Z,16.89
2023-05-09T03:25:56.435Z,16.93
2023-05-09T03:27:00.033Z,17.01
2023-05-09T03:28:03.917Z,17.05
2023-05-09T03:29:07.303Z,16.99
2023-05-09T03:30:11.102Z,16.95
2023-05-09T03:31:14.325Z,16.89
2023-05-09T03:32:17.677Z,16.98
2023-05-09T03:33:21.322Z,17.07
2023-05-09T03:34:24.981Z,17.09
2023-05-09T03:35:28.488Z,17.14
2023-05-09T03:36:33.057Z,17.29
2023-05-09T03:37:37.440Z,17.34
2023-05-09T03:38:42.370Z,17.47
2023-05-09T03:39:45.822Z,17.55
2023-05-09T03:40:49.076Z,17.54
2023-05-09T03:41:52.362Z,17.66
2023-05-09T03:42:55.823Z,17.74
2023-05-09T03:43:58.994Z,17.79
2023-05-09T03:45:02.169Z,17.79
2023-05-09T03:46:05.660Z,17.88
2023-05-09T03:47:09.103Z,17.88
2023-05-09T03:48:15.789Z,17.90
2023-05-09T03:49:24.133Z,17.85
2023-05-09T03:50:30.492Z,17.92
2023-05-09T03:51:35.319Z,17.96
2023-05-09T03:52:40.924Z,18.00
2023-05-09T03:53:46.778Z,17.91
2023-05-09T03:54:51.091Z,17.94
2023-05-09T03:55:54.483Z,17.94
2023-05-09T03:56:58.070Z,17.95
2023-05-09T03:58:01.388Z,18.01
2023-05-09T03:59:06.161Z,17.94
2023-05-09T04:00:11.130Z,18.11
2023-05-09T04:01:17.402Z,18.09
2023-05-09T04:02:22.355Z,18.04
2023-05-09T04:03:26.044Z,18.05
2023-05-09T04:04:30.853Z,18.02
2023-05-09T04:05:36.070Z,17.96
2023-05-09T04:06:41.025Z,17.94
2023-05-09T04:07:46.498Z,17.91
2023-05-09T04:08:51.706Z,18.02
2023-05-09T04:09:59.699Z,18.08
2023-05-09T04:11:02.925Z,18.07
2023-05-09T04:12:06.452Z,17.98
2023-05-09T04:13:09.782Z,17.91
2023-05-09T04:14:13.368Z,17.85
2023-05-09T04:15:16.992Z,17.85
2023-05-09T04:16:20.559Z,17.98
2023-05-09T04:17:23.768Z,17.93
2023-05-09T04:18:26.983Z,18.05
2023-05-09T04:19:30.196Z,18.10
2023-05-09T04:20:33.439Z,17.96
2023-05-09T04:21:38.354Z,17.85
2023-05-09T04:22:42.636Z,17.91
2023-05-09T04:23:47.342Z,17.86
2023-05-09T04:24:52.400Z,17.91
2023-05-09T04:25:55.994Z,18.03
2023-05-09T04:26:59.285Z,17.99
2023-05-09T04:28:03.138Z,17.93
2023-05-09T04:29:07.141Z,17.93
2023-05-09T04:30:12.185Z,17.87
2023-05-09T04:31:15.839Z,17.92
2023-05-09T04:32:24.034Z,17.95
2023-05-09T04:33:27.456Z,17.93
2023-05-09T04:34:36.343Z,17.90
2023-05-09T04:35:46.855Z,17.79
2023-05-09T04:36:50.311Z,17.73
2023-05-09T04:37:53.705Z,17.68
2023-05-09T04:38:56.904Z,17.70
2023-05-09T04:40:02.445Z,17.73
2023-05-09T04:41:13.352Z,17.69
2023-05-09T04:42:16.663Z,17.66
2023-05-09T04:43:20.001Z,17.63
2023-05-09T04:44:24.162Z,17.75
2023-05-09T04:45:27.499Z,17.85
2023-05-09T04:46:31.579Z,17.88
2023-05-09T04:47:35.125Z,18.04
2023-05-09T04:48:39.324Z,17.96
2023-05-09T04:49:42.605Z,17.95
2023-05-09T04:50:46.006Z,17.97
2023-05-09T04:51:49.242Z,18.06
2023-05-09T04:52:52.657Z,18.09
2023-05-09T04:53:56.691Z,18.08
2023-05-09T04:55:06.038Z,18.06
2023-05-09T04:56:14.572Z,18.05
2023-05-09T04:57:19.149Z,18.08
2023-05-09T04:58:28.545Z,18.09
2023-05-09T04:59:33.546Z,17.92
2023-05-09T05:00:36.914Z,17.66
2023-05-09T05:01:40.731Z,17.65
2023-05-09T05:02:44.192Z,17.52
2023-05-09T05:03:47.468Z,17.51
2023-05-09T05:04:51.388Z,17.62
2023-05-09T05:05:55.313Z,17.59
2023-05-09T05:06:58.622Z,17.44
2023-05-09T05:08:02.136Z,17.50
2023-05-09T05:09:10.795Z,17.49
2023-05-09T05:10:14.582Z,17.42
2023-05-09T05:11:22.575Z,17.42
2023-05-09T05:12:26.603Z,17.50
2023-05-09T05:13:29.985Z,17.40
2023-05-09T05:14:36.272Z,17.37
2023-05-09T05:15:41.500Z,17.18
2023-05-09T05:16:45.546Z,17.32
2023-05-09T05:17:48.933Z,17.48
2023-05-09T05:18:55.182Z,17.45
2023-05-09T05:19:59.403Z,17.42
2023-05-09T05:21:04.648Z,17.37
2023-05-09T05:22:08.011Z,17.39
2023-05-09T05:23:13.677Z,17.31
2023-05-09T05:24:16.934Z,17.36
2023-05-09T05:25:21.718Z,17.34
2023-05-09T05:26:27.449Z,17.33
2023-05-09T05:27:31.400Z,17.36
2023-05-09T05:28:34.791Z,17.36
2023-05-09T05:29:39.002Z,17.37
2023-05-09T05:30:42.757Z,17.39
2023-05-09T05:31:46.184Z,17.38
2023-05-09T05:32:49.526Z,17.45
2023-05-09T05:33:55.582Z,17.35
2023-05-09T05:34:59.193Z,17.38
2023-05-09T05:36:02.576Z,17.44
2023-05-09T05:37:06.343Z,17.39
2023-05-09T05:38:09.932Z,17.39
2023-05-09T05:39:13.660Z,17.44
2023-05-09T05:40:17.585Z,17.44
2023-05-09T05:41:24.250Z,17.48
2023-05-09T05:42:27.550Z,17.46
2023-05-09T05:43:31.045Z,17.44
2023-05-09T05:44:34.401Z,17.39
2023-05-09T05:45:38.974Z,17.38
2023-05-09T05:46:45.071Z,17.50
2023-05-09T05:47:48.466Z,17.37
2023-05-09T05:48:52.195Z,17.35
2023-05-09T05:49:55.480Z,17.35
2023-05-09T05:50:59.535Z,17.38
2023-05-09T05:52:06.255Z,17.30
2023-05-09T05:53:09.480Z,17.35
2023-05-09T05:54:13.522Z,17.37
2023-05-09T05:55:16.890Z,17.37
2023-05-09T05:56:20.444Z,17.47
2023-05-09T05:57:23.844Z,17.45
2023-05-09T05:58:27.281Z,17.38
2023-05-09T05:59:30.675Z,17.33
2023-05-09T06:00:34.093Z,17.43
2023-05-09T06:01:41.508Z,17.47
2023-05-09T06:02:45.983Z,17.51
2023-05-09T06:03:56.653Z,17.45
2023-05-09T06:05:04.583Z,17.40
2023-05-09T06:06:08.008Z,17.34
2023-05-09T06:07:14.614Z,17.28
2023-05-09T06:08:18.546Z,17.32
2023-05-09T06:09:21.726Z,17.30
2023-05-09T06:10:25.030Z,17.25
2023-05-09T06:11:28.357Z,17.26
2023-05-09T06:12:32.116Z,17.20
2023-05-09T06:13:35.435Z,17.21
2023-05-09T06:14:41.446Z,17.16
2023-05-09T06:15:44.967Z,17.16
2023-05-09T06:16:48.348Z,17.11
2023-05-09T06:17:51.653Z,17.10
2023-05-09T06:18:56.106Z,17.19
2023-05-09T06:19:59.709Z,17.20
2023-05-09T06:21:02.869Z,17.25
2023-05-09T06:22:06.250Z,17.30
2023-05-09T06:23:09.536Z,17.16
2023-05-09T06:24:20.150Z,17.17
2023-05-09T06:25:31.039Z,17.15
2023-05-09T06:26:34.435Z,17.03
2023-05-09T06:27:37.617Z,17.07
2023-05-09T06:28:40.867Z,17.04
2023-05-09T06:29:44.138Z,16.99
2023-05-09T06:30:47.363Z,16.91
2023-05-09T06:31:50.657Z,16.96
2023-05-09T06:32:54.556Z,16.93
2023-05-09T06:33:58.084Z,17.07
2023-05-09T06:35:01.479Z,17.10
2023-05-09T06:36:05.074Z,17.03
2023-05-09T06:37:08.257Z,17.00
2023-05-09T06:38:11.570Z,17.03
2023-05-09T06:39:14.713Z,17.00
2023-05-09T06:40:18.579Z,17.00
2023-05-09T06:41:22.536Z,16.98
2023-05-09T06:42:25.771Z,17.04
2023-05-09T06:43:28.900Z,17.08
2023-05-09T06:44:33.322Z,17.10
2023-05-09T06:45:36.790Z,17.04
2023-05-09T06:46:39.967Z,17.08
2023-05-09T06:47:43.261Z,17.02
2023-05-09T06:48:46.517Z,16.88
2023-05-09T06:49:49.831Z,16.85
2023-05-09T06:50:53.108Z,16.84
2023-05-09T06:51:56.433Z,16.74
2023-05-09T06:52:59.575Z,16.73
2023-05-09T06:54:03.081Z,16.69
2023-05-09T06:55:06.883Z,16.75
2023-05-09T06:56:10.114Z,16.68
2023-05-09T06:57:13.262Z,16.63
2023-05-09T06:58:16.631Z,16.59
2023-05-09T06:59:19.936Z,16.65
2023-05-09T07:00:23.635Z,16.58
2023-05-09T07:01:26.894Z,16.61
2023-05-09T07:02:30.216Z,16.51
2023-05-09T07:03:33.834Z,16.45
2023-05-09T07:04:37.097Z,16.45
2023-05-09T07:05:40.283Z,16.43
2023-05-09T07:06:43.787Z,16.38
2023-05-09T07:07:47.096Z,16.36
2023-05-09T07:08:50.550Z,16.24
2023-05-09T07:10:00.659Z,16.19
2023-05-09T07:11:11.201Z,16.15
2023-05-09T07:12:14.580Z,16.21
2023-05-09T07:13:17.823Z,16.28
2023-05-09T07:14:21.515Z,16.35
2023-05-09T07:15:39.769Z,16.31
2023-05-09T07:16:44.984Z,16.38
2023-05-09T07:17:48.406Z,16.32
2023-05-09T07:18:51.740Z,16.30
2023-05-09T07:19:55.015Z,16.24
2023-05-09T07:20:58.256Z,16.22
2023-05-09T07:22:01.530Z,16.18
2023-05-09T07:23:06.630Z,16.20
2023-05-09T07:24:10.038Z,16.18
2023-05-09T07:25:13.516Z,16.17
2023-05-09T07:26:16.916Z,16.12
2023-05-09T07:27:20.185Z,16.08
2023-05-09T07:28:23.576Z,16.12
2023-05-09T07:29:26.784Z,16.14
2023-05-09T07:30:29.954Z,16.10
2023-05-09T07:31:35.287Z,16.02
2023-05-09T07:32:40.598Z,16.08
2023-05-09T07:33:44.064Z,16.10
2023-05-09T07:34:47.447Z,16.10
2023-05-09T07:35:51.083Z,16.07
2023-05-09T07:36:54.402Z,16.02
2023-05-09T07:37:58.016Z,16.09
2023-05-09T07:39:01.523Z,16.03
2023-05-09T07:40:06.801Z,15.97
2023-05-09T07:41:10.470Z,15.95
2023-05-09T07:42:14.118Z,16.14
2023-05-09T07:43:17.291Z,16.23
2023-05-09T07:44:20.500Z,16.16
2023-05-09T07:45:24.088Z,16.10
2023-05-09T07:46:27.645Z,16.02
2023-05-09T07:47:30.873Z,16.01
2023-05-09T07:48:34.145Z,16.01
2023-05-09T07:49:37.312Z,15.93
2023-05-09T07:50:41.495Z,16.04
2023-05-09T07:51:44.742Z,16.12
2023-05-09T07:52:47.955Z,16.14
2023-05-09T07:53:51.253Z,16.13
2023-05-09T07:54:55.280Z,16.05
2023-05-09T07:55:59.626Z,15.94
2023-05-09T07:57:02.879Z,15.88
2023-05-09T07:58:06.319Z,15.82
2023-05-09T07:59:09.611Z,15.86
2023-05-09T08:00:13.448Z,15.86
2023-05-09T08:01:16.915Z,15.93
2023-05-09T08:02:20.081Z,16.00
2023-05-09T08:03:23.572Z,16.06
2023-05-09T08:04:27.068Z,16.07
2023-05-09T08:05:30.482Z,15.96
2023-05-09T08:06:34.198Z,15.84
2023-05-09T08:07:37.695Z,15.89
2023-05-09T08:08:40.962Z,15.93
2023-05-09T08:09:44.190Z,15.90
2023-05-09T08:10:47.336Z,15.88
2023-05-09T08:11:50.502Z,15.79
2023-05-09T08:12:53.888Z,15.83
2023-05-09T08:13:57.094Z,15.85
2023-05-09T08:15:00.379Z,15.87
2023-05-09T08:16:03.808Z,15.91
2023-05-09T08:17:06.998Z,15.89
2023-05-09T08:18:10.826Z,15.89
2023-05-09T08:19:14.177Z,15.80
2023-05-09T08:20:18.127Z,15.79
2023-05-09T08:21:22.807Z,15.77
2023-05-09T08:22:26.383Z,15.80
2023-05-09T08:23:31.013Z,15.95
2023-05-09T08:24:34.689Z,15.88
2023-05-09T08:25:37.957Z,15.88
2023-05-09T08:26:41.089Z,15.92
2023-05-09T08:27:44.293Z,15.91
2023-05-09T08:28:47.543Z,15.82
2023-05-09T08:29:50.731Z,15.83
2023-05-09T08:30:53.951Z,15.84
2023-05-09T08:31:57.232Z,15.92
2023-05-09T08:33:00.531Z,15.84
2023-05-09T08:34:03.839Z,15.85
2023-05-09T08:35:09.562Z,15.79
2023-05-09T08:36:12.758Z,15.76
2023-05-09T08:37:16.105Z,15.80
2023-05-09T08:38:20.178Z,15.82
2023-05-09T08:39:23.567Z,15.78
2023-05-09T08:40:26.995Z,15.81
2023-05-09T08:41:36.616Z,15.85
2023-05-09T08:42:40.847Z,15.78
2023-05-09T08:43:46.294Z,15.66
2023-05-09T08:44:49.994Z,15.72
2023-05-09T08:45:59.128Z,15.72
2023-05-09T08:47:05.201Z,15.78
2023-05-09T08:48:10.726Z,15.76
2023-05-09T08:49:14.670Z,15.72
2023-05-09T08:50:18.832Z,15.68
2023-05-09T08:51:23.325Z,15.57
2023-05-09T08:52:26.992Z,15.60
2023-05-09T08:53:30.455Z,15.56
2023-05-09T08:54:34.664Z,15.56
2023-05-09T08:55:38.822Z,15.51
2023-05-09T08:56:43.335Z,15.58
2023-05-09T08:57:47.373Z,15.60
2023-05-09T08:58:51.562Z,15.59
2023-05-09T08:59:56.789Z,15.62
2023-05-09T09:01:02.172Z,15.62
2023-05-09T09:02:09.020Z,15.64
2023-05-09T09:03:12.805Z,15.67
2023-05-09T09:04:16.214Z,15.67
2023-05-09T09:05:40.216Z,15.71
2023-05-09T09:06:44.384Z,15.84
2023-05-09T09:07:48.282Z,15.79
2023-05-09T09:08:53.204Z,15.64
2023-05-09T09:09:58.600Z,15.66
2023-05-09T09:11:02.544Z,15.66
2023-05-09T09:12:10.305Z,15.66
2023-05-09T09:13:14.757Z,15.75
2023-05-09T09:14:28.357Z,15.70
2023-05-09T09:15:37.130Z,15.72
2023-05-09T09:16:43.657Z,15.65
2023-05-09T09:17:52.002Z,15.65
2023-05-09T09:18:58.696Z,15.68
2023-05-09T09:20:10.137Z,15.78
2023-05-09T09:21:17.644Z,15.84
2023-05-09T09:22:21.543Z,15.73
2023-05-09T09:23:27.168Z,15.70
2023-05-09T09:24:32.985Z,15.65
2023-05-09T09:25:36.253Z,15.65
2023-05-09T09:26:50.421Z,15.64
2023-05-09T09:27:53.722Z,15.66
2023-05-09T09:28:58.265Z,15.72
2023-05-09T09:30:11.869Z,15.73
2023-05-09T09:31:26.644Z,15.72
2023-05-09T09:32:36.445Z,15.63
2023-05-09T09:33:39.649Z,15.69
2023-05-09T09:34:42.893Z,15.73
2023-05-09T09:35:46.123Z,15.83
2023-05-09T09:36:50.282Z,15.86
2023-05-09T09:38:00.937Z,15.87
2023-05-09T09:39:05.716Z,15.77
2023-05-09T09:40:13.329Z,15.72
2023-05-09T09:41:16.721Z,15.58
2023-05-09T09:42:19.872Z,15.48
2023-05-09T09:43:32.978Z,15.46
2023-05-09T09:44:36.192Z,15.57
2023-05-09T09:45:43.155Z,15.59
2023-05-09T09:46:51.397Z,15.52
2023-05-09T09:47:55.237Z,15.36
2023-05-09T09:48:58.571Z,15.34
2023-05-09T09:50:15.072Z,15.34
2023-05-09T09:51:19.375Z,15.39
2023-05-09T09:52:26.054Z,15.41
2023-05-09T09:53:31.964Z,15.44
2023-05-09T09:54:35.363Z,15.45
2023-05-09T09:55:38.615Z,15.55
2023-05-09T09:56:44.665Z,15.63
2023-05-09T09:57:49.100Z,15.61
2023-05-09T09:59:10.511Z,15.54
2023-05-09T10:00:25.287Z,15.64
2023-05-09T10:01:28.599Z,15.69
2023-05-09T10:02:32.152Z,15.73
2023-05-09T10:03:43.779Z,15.64
2023-05-09T10:04:47.006Z,15.59
2023-05-09T10:06:03.211Z,15.66
2023-05-09T10:07:13.782Z,15.61
2023-05-09T10:08:18.344Z,15.62
2023-05-09T10:09:25.588Z,15.60
2023-05-09T10:10:30.041Z,15.72
2023-05-09T10:11:33.930Z,15.80
2023-05-09T10:12:43.585Z,15.86
2023-05-09T10:13:47.331Z,15.84
2023-05-09T10:14:50.886Z,15.80
2023-05-09T10:15:55.860Z,15.69
2023-05-09T10:17:00.818Z,15.76
2023-05-09T10:18:05.443Z,15.65
2023-05-09T10:19:10.459Z,15.59
2023-05-09T10:20:15.127Z,15.46
2023-05-09T10:21:18.550Z,15.57
2023-05-09T10:22:22.408Z,15.48
2023-05-09T10:23:26.640Z,15.44
2023-05-09T10:24:36.197Z,15.57
2023-05-09T10:25:45.191Z,15.60
2023-05-09T10:26:52.890Z,15.48
2023-05-09T10:28:02.651Z,15.54
2023-05-09T10:29:13.552Z,15.56
2023-05-09T10:30:23.171Z,15.50
2023-05-09T10:31:33.482Z,15.52
2023-05-09T10:32:53.011Z,15.74
2023-05-09T10:33:57.324Z,15.84
2023-05-09T10:35:07.871Z,15.91
2023-05-09T10:36:12.952Z,15.85
2023-05-09T10:37:17.583Z,15.86
2023-05-09T10:38:21.355Z,15.86
2023-05-09T10:39:25.385Z,15.83
2023-05-09T10:40:33.210Z,15.85
2023-05-09T10:41:38.168Z,15.77
2023-05-09T10:42:43.032Z,15.77
2023-05-09T10:43:47.538Z,15.73
2023-05-09T10:44:51.042Z,15.85
2023-05-09T10:45:55.695Z,15.80
2023-05-09T10:47:00.251Z,15.76
2023-05-09T10:48:07.854Z,15.73
2023-05-09T10:49:11.843Z,15.77
2023-05-09T10:50:16.073Z,15.77
2023-05-09T10:51:19.585Z,15.92
2023-05-09T10:52:23.861Z,15.87
2023-05-09T10:53:41.634Z,15.86
2023-05-09T10:54:44.824Z,15.84
2023-05-09T10:55:48.531Z,15.70
2023-05-09T10:56:52.230Z,15.63
2023-05-09T10:57:55.746Z,15.65
2023-05-09T10:59:00.123Z,15.65
2023-05-09T11:00:03.763Z,15.67
2023-05-09T11:01:07.765Z,15.68
2023-05-09T11:02:19.798Z,15.63
2023-05-09T11:03:25.583Z,15.73
2023-05-09T11:04:29.562Z,15.62
2023-05-09T11:05:40.497Z,15.48
2023-05-09T11:06:57.150Z,15.41
2023-05-09T11:08:26.944Z,15.26
2023-05-09T11:09:36.197Z,15.22
2023-05-09T11:10:43.832Z,15.16
2023-05-09T11:11:55.322Z,15.11
2023-05-09T11:13:01.760Z,15.11
2023-05-09T11:14:04.981Z,15.12
2023-05-09T11:15:09.780Z,15.16
2023-05-09T11:16:13.427Z,15.14
2023-05-09T11:17:22.850Z,15.10
2023-05-09T11:18:26.480Z,15.10
2023-05-09T11:20:00.602Z,15.13
2023-05-09T11:21:10.305Z,15.17
2023-05-09T11:22:15.821Z,15.04
2023-05-09T11:23:26.771Z,14.98
2023-05-09T11:24:32.413Z,15.01
2023-05-09T11:25:35.735Z,15.04
2023-05-09T11:26:40.845Z,15.04
2023-05-09T11:27:50.890Z,15.06
2023-05-09T11:28:55.479Z,15.07
2023-05-09T11:30:00.598Z,15.11
2023-05-09T11:31:12.290Z,15.07
2023-05-09T11:32:16.548Z,15.15
2023-05-09T11:33:31.672Z,15.09
2023-05-09T11:34:35.490Z,15.14
2023-05-09T11:35:38.856Z,15.06
2023-05-09T11:36:48.569Z,15.07
2023-05-09T11:38:06.914Z,15.04
2023-05-09T11:39:12.137Z,15.00
2023-05-09T11:40:18.282Z,14.98
2023-05-09T11:41:22.409Z,14.92
2023-05-09T11:42:30.112Z,14.87
2023-05-09T11:43:33.932Z,14.88
2023-05-09T11:44:37.508Z,14.89
2023-05-09T11:45:42.242Z,15.03
2023-05-09T11:46:50.128Z,14.99
2023-05-09T11:47:53.873Z,15.12
2023-05-09T11:48:57.253Z,15.28
2023-05-09T11:50:00.945Z,15.39
2023-05-09T11:51:05.326Z,15.53
2023-05-09T11:52:08.563Z,15.58
2023-05-09T11:53:13.156Z,15.50
2023-05-09T11:54:16.494Z,15.28
2023-05-09T11:55:30.668Z,15.37
2023-05-09T11:56:36.877Z,15.48
2023-05-09T11:57:45.789Z,15.44
2023-05-09T11:58:52.093Z,15.36
2023-05-09T11:59:56.166Z,15.42
2023-05-09T12:00:59.961Z,15.55
2023-05-09T12:02:08.014Z,15.35
2023-05-09T12:03:11.540Z,15.20
2023-05-09T12:04:15.066Z,15.17
2023-05-09T12:05:20.384Z,15.13
2023-05-09T12:06:23.582Z,15.23
2023-05-09T12:07:26.889Z,15.11
2023-05-09T12:08:30.226Z,15.09
2023-05-09T12:09:35.915Z,15.10
2023-05-09T12:10:40.857Z,15.02
2023-05-09T12:11:53.342Z,15.06
2023-05-09T12:12:57.755Z,15.02
2023-05-09T12:14:01.092Z,14.87
2023-05-09T12:15:08.772Z,14.93
2023-05-09T12:16:12.012Z,15.03
2023-05-09T12:17:15.485Z,15.07
2023-05-09T12:18:19.002Z,14.99
2023-05-09T12:19:25.862Z,15.20
2023-05-09T12:20:29.013Z,15.14
2023-05-09T12:21:32.345Z,15.15
2023-05-09T12:22:36.204Z,15.17
2023-05-09T12:23:39.385Z,15.18
2023-05-09T12:24:42.707Z,15.01
2023-05-09T12:26:03.684Z,15.09
2023-05-09T12:27:08.649Z,15.12
2023-05-09T12:28:12.445Z,15.05
2023-05-09T12:29:16.017Z,15.01
2023-05-09T12:30:19.622Z,15.02
2023-05-09T12:31:23.775Z,15.14
2023-05-09T12:32:32.433Z,15.18
2023-05-09T12:33:38.145Z,15.14
2023-05-09T12:34:41.916Z,15.15
2023-05-09T12:35:49.286Z,15.31
2023-05-09T12:36:52.661Z,15.26
2023-05-09T12:38:02.387Z,15.41
2023-05-09T12:39:13.904Z,15.37
2023-05-09T12:40:17.231Z,15.41
2023-05-09T12:41:36.992Z,15.33
2023-05-09T12:42:44.728Z,15.27
2023-05-09T12:43:50.606Z,15.36
2023-05-09T12:44:54.425Z,15.27
2023-05-09T12:45:59.954Z,15.44
2023-05-09T12:47:05.487Z,15.39
2023-05-09T12:48:12.185Z,15.42
2023-05-09T12:49:22.830Z,15.40
2023-05-09T12:50:37.148Z,15.58
2023-05-09T12:51:50.946Z,15.50
2023-05-09T12:53:02.533Z,15.50
2023-05-09T12:54:11.613Z,15.55
2023-05-09T12:55:15.595Z,15.52
2023-05-09T12:56:21.537Z,15.54
2023-05-09T12:57:30.187Z,15.63
2023-05-09T12:58:35.550Z,15.59
2023-05-09T12:59:44.628Z,15.63
2023-05-09T13:00:48.185Z,15.75
2023-05-09T13:01:56.167Z,15.78
2023-05-09T13:03:00.233Z,15.93
2023-05-09T13:04:06.577Z,16.01
2023-05-09T13:05:16.580Z,15.85
2023-05-09T13:06:20.065Z,15.81
2023-05-09T13:07:23.260Z,15.94
2023-05-09T13:08:27.029Z,15.70
2023-05-09T13:09:30.555Z,15.64
2023-05-09T13:10:34.580Z,15.54
2023-05-09T13:11:38.656Z,15.71
2023-05-09T13:12:45.924Z,15.64
2023-05-09T13:13:49.113Z,15.84
2023-05-09T13:14:52.859Z,15.67
2023-05-09T13:15:56.995Z,15.80
2023-05-09T13:17:00.443Z,15.82
2023-05-09T13:18:03.769Z,15.91
2023-05-09T13:19:07.096Z,16.02
2023-05-09T13:20:11.334Z,16.10
2023-05-09T13:21:14.606Z,16.22
2023-05-09T13:22:18.248Z,16.28
2023-05-09T13:23:22.960Z,16.15
2023-05-09T13:24:26.222Z,16.14
2023-05-09T13:25:29.525Z,16.06
2023-05-09T13:26:33.094Z,16.06
2023-05-09T13:27:36.546Z,16.00
2023-05-09T13:28:39.785Z,16.05
2023-05-09T13:29:43.271Z,15.82
2023-05-09T13:30:46.592Z,15.61
2023-05-09T13:31:49.905Z,15.62
2023-05-09T13:32:53.487Z,15.73
2023-05-09T13:33:56.903Z,15.88
2023-05-09T13:35:00.225Z,15.98
2023-05-09T13:36:03.502Z,15.90
2023-05-09T13:37:06.673Z,15.90
2023-05-09T13:38:09.937Z,15.81
2023-05-09T13:39:13.216Z,15.81
2023-05-09T13:40:16.861Z,15.78
2023-05-09T13:41:24.591Z,15.74
2023-05-09T13:42:28.865Z,15.86
2023-05-09T13:43:32.095Z,15.84
2023-05-09T13:44:35.436Z,16.01
2023-05-09T13:45:38.749Z,15.99
2023-05-09T13:46:42.381Z,15.92
2023-05-09T13:47:46.371Z,15.90
2023-05-09T13:48:49.689Z,15.98
2023-05-09T13:49:53.367Z,15.95
2023-05-09T13:50:58.413Z,15.81
2023-05-09T13:52:01.722Z,15.87
2023-05-09T13:53:05.356Z,15.85
2023-05-09T13:54:13.347Z,15.71
2023-05-09T13:55:16.733Z,15.71
2023-05-09T13:56:20.275Z,15.80
2023-05-09T13:57:23.518Z,15.91
2023-05-09T13:58:26.715Z,16.07
2023-05-09T13:59:30.675Z,15.95
2023-05-09T14:00:34.631Z,15.88
2023-05-09T14:01:38.166Z,15.80
2023-05-09T14:02:42.018Z,15.79